Time;durP1;ratioP1;P1;durP2;ratioP2;P2;SDS_P1;SDS_P2;PMS_P1;PMS_P2;Temp;Humidity;BMP_temperature;BMP_pressure;BME280_temperature;BME280_humidity;BME280_pressure;Samples;Min_cycle;Max_cycle;Signal;HPM_P1;HPM_P2
2022/08/23 00:00:42;;;;;;;;;;;;;;;23.39;68.59;96804.85;199285;293;189648;-52
2022/08/23 00:01:43;;;;;;;;;;;;;;;23.38;68.59;96805.43;199248;293;189146;-55
2022/08/23 00:02:45;;;;;;;;;;;;;;;23.39;68.60;96810.38;199606;293;189886;-52
2022/08/23 00:03:46;;;;;;;;;;;;;;;23.41;68.61;96808.09;198653;294;188264;-52
2022/08/23 00:04:47;;;;;;;;;;;;;;;23.38;68.60;96806.81;199526;293;189218;-52
2022/08/23 00:05:49;;;;;;;;;;;;;;;23.39;68.62;96810.38;199515;293;189790;-53
2022/08/23 00:06:50;;;;;;;;;;;;;;;23.39;68.61;96813.15;198390;294;189339;-53
2022/08/23 00:07:51;;;;;;;;;;;;;;;23.39;68.61;96810.38;199584;293;187259;-52
2022/08/23 00:08:53;;;;;;;;;;;;;;;23.38;68.61;96806.81;199013;294;190415;-51
2022/08/23 00:09:54;;;;;;;;;;;;;;;23.37;68.64;96809.94;199559;293;189530;-57
2022/08/23 00:10:56;;;;;;;;;;;;;;;23.37;68.65;96805.20;198737;294;189215;-53
2022/08/23 00:11:57;;;;;;;;;;;;;;;23.37;68.66;96808.55;199558;293;188565;-55
2022/08/23 00:12:58;;;;;;;;;;;;;;;23.37;68.65;96812.12;198668;294;189141;-51
2022/08/23 00:14:00;;;;;;;;;;;;;;;23.36;68.65;96802.80;199584;293;190117;-52
2022/08/23 00:15:01;;;;;;;;;;;;;;;23.36;68.67;96806.36;198526;294;187056;-51
2022/08/23 00:16:02;;;;;;;;;;;;;;;23.37;68.69;96805.20;199603;293;190915;-54
2022/08/23 00:17:04;;;;;;;;;;;;;;;23.36;68.69;96801.41;198710;294;190731;-53
2022/08/23 00:18:05;;;;;;;;;;;;;;;23.37;68.70;96803.83;199555;293;187439;-52
2022/08/23 00:19:06;;;;;;;;;;;;;;;23.34;68.70;96801.77;198601;294;189076;-54
2022/08/23 00:20:07;;;;;;;;;;;;;;;23.34;68.70;96800.97;199093;294;188451;-51
2022/08/23 00:21:09;;;;;;;;;;;;;;;23.35;68.72;96808.91;199574;293;187311;-55
2022/08/23 00:22:10;;;;;;;;;;;;;;;23.34;68.75;96798.20;198683;294;187329;-51
2022/08/23 00:23:12;;;;;;;;;;;;;;;23.33;68.75;96802.13;199597;293;189063;-55
2022/08/23 00:24:13;;;;;;;;;;;;;;;23.36;68.75;96808.33;198824;294;188406;-53
2022/08/23 00:25:14;;;;;;;;;;;;;;;23.34;68.75;96807.87;199497;293;187179;-52
2022/08/23 00:26:16;;;;;;;;;;;;;;;23.35;68.75;96808.91;198630;294;188152;-54
2022/08/23 00:27:18;;;;;;;;;;;;;;;23.33;68.75;96799.36;199639;293;189627;-53
2022/08/23 00:28:19;;;;;;;;;;;;;;;23.32;68.80;96811.00;199092;294;189019;-52
2022/08/23 00:29:20;;;;;;;;;;;;;;;23.36;68.78;96809.70;199404;293;187436;-51
2022/08/23 00:30:22;;;;;;;;;;;;;;;23.35;68.81;96813.63;198660;294;188217;-51
2022/08/23 00:31:23;;;;;;;;;;;;;;;23.36;68.77;96812.48;199615;293;189057;-53
2022/08/23 00:32:25;;;;;;;;;;;;;;;23.34;68.81;96812.03;199288;293;189128;-52
2022/08/23 00:33:26;;;;;;;;;;;;;;;23.33;68.80;96811.80;198722;294;188401;-51
2022/08/23 00:34:27;;;;;;;;;;;;;;;23.35;68.79;96820.55;199507;293;187151;-54
2022/08/23 00:35:29;;;;;;;;;;;;;;;23.31;68.81;96813.54;198638;294;190937;-53
2022/08/23 00:36:30;;;;;;;;;;;;;;;23.31;68.82;96820.45;199587;293;189179;-55
2022/08/23 00:37:31;;;;;;;;;;;;;;;23.34;68.78;96825.85;199531;293;187136;-51
2022/08/23 00:38:33;;;;;;;;;;;;;;;23.32;68.81;96819.30;199350;293;190668;-56
2022/08/23 00:39:34;;;;;;;;;;;;;;;23.32;68.81;96819.30;198663;294;189762;-53
2022/08/23 00:40:35;;;;;;;;;;;;;;;23.36;68.82;96819.39;199613;293;189832;-50
2022/08/23 00:41:37;;;;;;;;;;;;;;;23.31;68.82;96811.36;199104;293;190923;-53
2022/08/23 00:47:56;;;;;;;;;;;;;;;23.32;68.84;96815.72;199510;293;153183;-51
2022/08/23 00:48:58;;;;;;;;;;;;;;;23.32;68.84;96815.72;198444;294;189106;-53
2022/08/23 00:49:59;;;;;;;;;;;;;;;23.30;68.87;96812.52;199492;293;187337;-55
2022/08/23 00:51:00;;;;;;;;;;;;;;;23.32;68.88;96811.58;199564;293;188188;-54
2022/08/23 00:52:02;;;;;;;;;;;;;;;23.30;68.90;96809.16;198651;294;189106;-52
2022/08/23 00:53:04;;;;;;;;;;;;;;;23.30;68.90;96809.16;199294;293;186554;-52
2022/08/23 00:54:06;;;;;;;;;;;;;;;23.28;68.90;96799.01;199102;294;188974;-50
2022/08/23 00:55:07;;;;;;;;;;;;;;;23.28;68.90;96802.35;199553;293;188551;-52
2022/08/23 00:56:09;;;;;;;;;;;;;;;23.30;68.91;96806.40;198581;294;190223;-54
2022/08/23 00:57:10;;;;;;;;;;;;;;;23.28;68.91;96804.53;198868;293;190507;-53
2022/08/23 00:58:11;;;;;;;;;;;;;;;23.30;68.93;96808.36;198971;293;189300;-52
2022/08/23 00:59:13;;;;;;;;;;;;;;;23.29;68.94;96805.38;199954;292;188534;-51
2022/08/23 01:00:14;;;;;;;;;;;;;;;23.28;68.96;96800.39;200060;292;189021;-54
2022/08/23 01:01:15;;;;;;;;;;;;;;;23.28;68.98;96800.97;200093;292;189294;-54
2022/08/23 01:02:17;;;;;;;;;;;;;;;23.29;68.97;96803.98;200058;292;188442;-51
2022/08/23 01:03:18;;;;;;;;;;;;;;;23.28;68.99;96804.53;200088;292;188070;-52
2022/08/23 01:04:19;;;;;;;;;;;;;;;23.28;68.99;96805.12;200040;292;189226;-53
2022/08/23 01:05:21;;;;;;;;;;;;;;;23.30;68.97;96806.98;200116;292;189306;-54
2022/08/23 01:06:22;;;;;;;;;;;;;;;23.29;68.98;96806.75;199987;292;190150;-50
2022/08/23 01:07:23;;;;;;;;;;;;;;;23.28;68.99;96807.88;200119;292;189215;-51
2022/08/23 01:08:25;;;;;;;;;;;;;;;23.29;69.01;96805.38;200068;292;188921;-54
2022/08/23 01:09:26;;;;;;;;;;;;;;;23.27;69.04;96812.61;199972;292;188247;-54
2022/08/23 01:10:27;;;;;;;;;;;;;;;23.28;69.06;96810.65;199729;292;190934;-55
2022/08/23 01:11:32;;;;;;;;;;;;;;;23.28;69.06;96810.06;200078;292;188445;-51
2022/08/23 01:12:32;;;;;;;;;;;;;;;23.29;69.10;96812.28;200091;292;156256;-53
2022/08/23 01:13:33;;;;;;;;;;;;;;;23.30;69.11;96811.12;200063;292;189124;-56
2022/08/23 01:14:34;;;;;;;;;;;;;;;23.27;69.15;96809.04;199788;292;188510;-56
2022/08/23 01:15:36;;;;;;;;;;;;;;;23.28;69.16;96815.59;200026;292;188220;-54
2022/08/23 01:16:37;;;;;;;;;;;;;;;23.29;69.20;96813.67;200074;292;189933;-52
2022/08/23 01:17:38;;;;;;;;;;;;;;;23.26;69.24;96809.63;200094;292;188527;-52
2022/08/23 01:18:40;;;;;;;;;;;;;;;23.29;69.27;96819.20;199951;292;188194;-54
2022/08/23 01:19:41;;;;;;;;;;;;;;;23.29;69.25;96817.23;200091;292;189142;-52
2022/08/23 01:20:42;;;;;;;;;;;;;;;23.28;69.27;96816.98;200044;292;188553;-53
2022/08/23 01:21:44;;;;;;;;;;;;;;;23.27;69.25;96809.84;200121;292;189947;-51
2022/08/23 01:22:45;;;;;;;;;;;;;;;23.28;69.30;96809.27;200092;292;189152;-52
2022/08/23 01:23:46;;;;;;;;;;;;;;;23.29;69.29;96810.91;200072;292;188565;-52
2022/08/23 01:24:48;;;;;;;;;;;;;;;23.27;69.29;96803.51;200084;292;187889;-54
2022/08/23 01:25:49;;;;;;;;;;;;;;;23.29;69.34;96803.98;200123;292;189078;-54
2022/08/23 01:26:51;;;;;;;;;;;;;;;23.29;69.33;96805.38;200058;292;190126;-52
2022/08/23 01:27:52;;;;;;;;;;;;;;;23.28;69.36;96814.80;200063;292;189996;-52
2022/08/23 01:28:53;;;;;;;;;;;;;;;23.30;69.32;96815.28;199934;292;188149;-51
2022/08/23 01:29:55;;;;;;;;;;;;;;;23.28;69.31;96816.17;200077;292;189154;-53
2022/08/23 01:30:56;;;;;;;;;;;;;;;23.27;69.32;96811.80;200067;292;189796;-53
2022/08/23 01:31:57;;;;;;;;;;;;;;;23.28;69.33;96814.22;200095;292;188057;-53
2022/08/23 01:32:59;;;;;;;;;;;;;;;23.27;69.30;96806.27;200059;292;189119;-52
2022/08/23 01:34:01;;;;;;;;;;;;;;;23.27;69.34;96802.13;200079;292;188420;-52
2022/08/23 01:35:02;;;;;;;;;;;;;;;23.29;69.36;96805.38;200058;292;189951;-54
2022/08/23 01:36:03;;;;;;;;;;;;;;;23.27;69.35;96797.98;200141;292;188919;-54
2022/08/23 01:37:05;;;;;;;;;;;;;;;23.27;69.34;96797.98;200079;292;189119;-52
2022/08/23 01:38:06;;;;;;;;;;;;;;;23.28;69.36;96799.59;200069;292;188502;-53
2022/08/23 01:39:07;;;;;;;;;;;;;;;23.26;69.35;96801.91;199518;292;187367;-54
2022/08/23 01:40:09;;;;;;;;;;;;;;;23.28;69.37;96801.77;199714;292;191262;-54
2022/08/23 01:41:10;;;;;;;;;;;;;;;23.27;69.41;96804.31;200048;292;189895;-53
2022/08/23 01:42:11;;;;;;;;;;;;;;;23.27;69.40;96802.13;200096;292;188350;-54
2022/08/23 01:43:13;;;;;;;;;;;;;;;23.26;69.37;96806.05;200087;292;189191;-52
2022/08/23 01:44:14;;;;;;;;;;;;;;;23.25;69.38;96801.68;199704;292;190446;-52
2022/08/23 01:45:15;;;;;;;;;;;;;;;23.26;69.38;96809.63;200056;292;188582;-52
2022/08/23 01:46:17;;;;;;;;;;;;;;;23.26;69.38;96803.28;199641;292;187190;-54
2022/08/23 01:47:18;;;;;;;;;;;;;;;23.27;69.41;96806.27;200048;292;189084;-56
2022/08/23 01:48:19;;;;;;;;;;;;;;;23.24;69.40;96807.78;199716;292;188581;-51
2022/08/23 01:49:21;;;;;;;;;;;;;;;23.28;69.40;96807.88;199942;292;188201;-52
2022/08/23 01:50:22;;;;;;;;;;;;;;;23.26;69.39;96807.43;200078;292;189923;-52
2022/08/23 01:51:23;;;;;;;;;;;;;;;23.27;69.40;96812.61;200093;292;189116;-54
2022/08/23 01:52:25;;;;;;;;;;;;;;;23.26;69.41;96804.66;200085;292;188167;-53
2022/08/23 01:53:26;;;;;;;;;;;;;;;23.27;69.42;96809.04;200088;292;189615;-53
2022/08/23 01:54:28;;;;;;;;;;;;;;;23.26;69.39;96806.05;200083;292;189081;-51
2022/08/23 01:55:29;;;;;;;;;;;;;;;23.27;69.44;96807.66;200035;292;188346;-54
2022/08/23 01:56:30;;;;;;;;;;;;;;;23.25;69.44;96803.06;200078;292;187279;-52
2022/08/23 01:57:32;;;;;;;;;;;;;;;23.27;69.44;96808.46;200100;292;188964;-53
2022/08/23 01:58:33;;;;;;;;;;;;;;;23.26;69.46;96807.43;199624;292;189098;-54
2022/08/23 01:59:35;;;;;;;;;;;;;;;23.26;69.47;96802.70;198182;295;188463;-52
2022/08/23 02:00:36;;;;;;;;;;;;;;;23.28;69.48;96808.69;197854;295;187111;-52
2022/08/23 02:01:37;;;;;;;;;;;;;;;23.26;69.46;96804.09;199160;293;189111;-50
2022/08/23 02:02:39;;;;;;;;;;;;;;;23.26;69.45;96801.33;198235;295;189927;-54
2022/08/23 02:03:40;;;;;;;;;;;;;;;23.26;69.47;96807.43;199106;294;187134;-53
2022/08/23 02:04:41;;;;;;;;;;;;;;;23.24;69.52;96800.07;199543;293;189605;-50
2022/08/23 02:05:44;;;;;;;;;;;;;;;23.26;69.47;96807.43;198225;295;188989;-52
2022/08/23 02:06:45;;;;;;;;;;;;;;;23.26;69.48;96810.20;199136;293;190714;-51
2022/08/23 02:07:47;;;;;;;;;;;;;;;23.27;69.50;96804.89;198214;295;189007;-51
2022/08/23 02:09:00;;;;;;;;;;;;;;;23.24;69.46;96806.98;198979;294;188115;-54
2022/08/23 02:10:02;;;;;;;;;;;;;;;23.25;69.48;96808.59;199729;292;187172;-54
2022/08/23 02:11:03;;;;;;;;;;;;;;;23.26;69.49;96808.81;198448;294;188085;-53
2022/08/23 02:12:04;;;;;;;;;;;;;;;23.26;69.47;96806.05;198916;294;189962;-52
2022/08/23 02:13:06;;;;;;;;;;;;;;;23.26;69.44;96807.43;199343;293;187386;-52
2022/08/23 02:14:07;;;;;;;;;;;;;;;23.24;69.46;96801.45;198579;294;190647;-50
2022/08/23 02:15:08;;;;;;;;;;;;;;;23.25;69.44;96803.86;199077;293;189107;-53
2022/08/23 02:16:10;;;;;;;;;;;;;;;23.25;69.46;96804.45;199571;293;187149;-53
2022/08/23 02:17:11;;;;;;;;;;;;;;;23.26;69.44;96807.43;198191;295;188180;-54
2022/08/23 02:18:12;;;;;;;;;;;;;;;23.26;69.47;96807.43;198218;295;189036;-52
2022/08/23 02:19:14;;;;;;;;;;;;;;;23.27;69.48;96815.95;198086;295;189013;-51
2022/08/23 02:20:15;;;;;;;;;;;;;;;23.25;69.51;96809.97;198211;295;188399;-55
2022/08/23 02:21:17;;;;;;;;;;;;;;;23.25;69.51;96812.73;199152;293;187162;-51
2022/08/23 02:22:18;;;;;;;;;;;;;;;23.24;69.51;96809.17;198247;295;189071;-54
2022/08/23 02:23:19;;;;;;;;;;;;;;;23.24;69.52;96816.08;199081;294;189294;-52
2022/08/23 02:24:21;;;;;;;;;;;;;;;23.27;69.47;96814.57;199520;293;188251;-54
2022/08/23 02:25:22;;;;;;;;;;;;;;;23.22;69.46;96806.53;198247;295;188602;-52
2022/08/23 02:26:24;;;;;;;;;;;;;;;23.24;69.48;96813.31;198223;295;189812;-53
2022/08/23 02:27:25;;;;;;;;;;;;;;;23.27;69.49;96810.42;198033;295;187965;-51
2022/08/23 02:28:27;;;;;;;;;;;;;;;23.22;69.49;96810.68;198156;295;190660;-54
2022/08/23 02:29:28;;;;;;;;;;;;;;;23.24;69.50;96820.81;198105;295;187931;-53
2022/08/23 02:30:30;;;;;;;;;;;;;;;23.24;69.51;96811.94;198218;295;189959;-55
2022/08/23 02:31:31;;;;;;;;;;;;;;;23.22;69.50;96809.30;198234;295;188155;-53
2022/08/23 02:32:32;;;;;;;;;;;;;;;23.24;69.51;96815.28;198221;295;189060;-53
2022/08/23 02:33:34;;;;;;;;;;;;;;;23.23;69.51;96810.91;199177;293;188451;-53
2022/08/23 02:34:35;;;;;;;;;;;;;;;23.24;69.54;96815.28;198223;295;188185;-53
2022/08/23 02:35:36;;;;;;;;;;;;;;;23.24;69.54;96812.52;198642;294;189086;-52
2022/08/23 02:36:38;;;;;;;;;;;;;;;23.22;69.50;96812.06;199149;293;190949;-53
2022/08/23 02:37:39;;;;;;;;;;;;;;;23.21;69.51;96815.98;198235;295;189158;-53
2022/08/23 02:38:40;;;;;;;;;;;;;;;23.22;69.49;96815.63;198580;294;189552;-53
2022/08/23 02:39:42;;;;;;;;;;;;;;;23.23;69.49;96820.58;199143;293;189971;-52
2022/08/23 02:40:43;;;;;;;;;;;;;;;23.25;69.52;96825.98;198250;295;189246;-54
2022/08/23 02:41:44;;;;;;;;;;;;;;;23.22;69.50;96818.97;198260;294;189563;-54
2022/08/23 02:42:46;;;;;;;;;;;;;;;23.23;69.49;96826.11;198891;293;189939;-54
2022/08/23 02:43:48;;;;;;;;;;;;;;;23.26;69.52;96828.17;198219;295;190523;-53
2022/08/23 02:44:50;;;;;;;;;;;;;;;23.22;69.52;96825.89;198678;293;189114;-54
2022/08/23 02:45:51;;;;;;;;;;;;;;;23.23;69.55;96828.88;199511;293;189081;-51
2022/08/23 02:46:52;;;;;;;;;;;;;;;23.23;69.50;96827.50;198428;294;188575;-52
2022/08/23 02:47:54;;;;;;;;;;;;;;;23.21;69.54;96821.52;199064;294;188089;-58
2022/08/23 02:48:55;;;;;;;;;;;;;;;23.22;69.54;96821.73;199362;292;189639;-53
2022/08/23 02:49:57;;;;;;;;;;;;;;;23.22;69.49;96828.08;198202;295;190683;-51
2022/08/23 02:50:58;;;;;;;;;;;;;;;23.23;69.51;96826.11;199171;293;189972;-52
2022/08/23 02:52:00;;;;;;;;;;;;;;;23.22;69.54;96818.40;198233;295;191134;-55
2022/08/23 02:53:01;;;;;;;;;;;;;;;23.22;69.52;96823.92;199059;294;189139;-54
2022/08/23 02:54:03;;;;;;;;;;;;;;;23.20;69.54;96823.48;199533;293;188605;-51
2022/08/23 02:55:04;;;;;;;;;;;;;;;23.20;69.54;96822.09;198114;295;189908;-52
2022/08/23 02:56:05;;;;;;;;;;;;;;;23.22;69.53;96824.50;198239;295;187342;-50
2022/08/23 02:57:07;;;;;;;;;;;;;;;23.21;69.54;96820.13;199197;293;189023;-51
2022/08/23 02:58:08;;;;;;;;;;;;;;;23.22;69.53;96821.16;198311;294;189234;-53
2022/08/23 02:59:09;;;;;;;;;;;;;;;23.20;69.54;96822.67;199044;294;189130;-54
2022/08/23 03:00:11;;;;;;;;;;;;;;;23.20;69.57;96826.24;199585;293;190023;-53
2022/08/23 03:01:12;;;;;;;;;;;;;;;23.21;69.56;96829.81;198691;294;190095;-52
2022/08/23 03:02:13;;;;;;;;;;;;;;;23.20;69.58;96829.00;199635;293;188220;-52
2022/08/23 03:03:15;;;;;;;;;;;;;;;23.18;69.57;96823.02;199143;294;189996;-55
2022/08/23 03:04:16;;;;;;;;;;;;;;;23.20;69.56;96834.53;199444;293;188446;-51
2022/08/23 03:05:17;;;;;;;;;;;;;;;23.18;69.57;96827.17;198728;293;189800;-55
2022/08/23 03:06:19;;;;;;;;;;;;;;;23.20;69.56;96830.97;199139;294;189123;-50
2022/08/23 03:07:20;;;;;;;;;;;;;;;23.20;69.55;96823.48;199565;293;189742;-53
2022/08/23 03:08:21;;;;;;;;;;;;;;;23.19;69.54;96830.74;198689;294;188220;-51
2022/08/23 03:09:23;;;;;;;;;;;;;;;23.20;69.54;96832.35;199533;293;189111;-52
2022/08/23 03:10:24;;;;;;;;;;;;;;;23.17;69.54;96826.11;199113;294;189983;-55
2022/08/23 03:11:25;;;;;;;;;;;;;;;23.17;69.54;96827.50;199564;293;188163;-51
2022/08/23 03:12:27;;;;;;;;;;;;;;;23.19;69.58;96827.40;198686;294;191127;-50
2022/08/23 03:13:28;;;;;;;;;;;;;;;23.18;69.54;96819.42;199310;293;189904;-56
2022/08/23 03:14:29;;;;;;;;;;;;;;;23.17;69.58;96820.58;199252;293;187115;-52
2022/08/23 03:15:31;;;;;;;;;;;;;;;23.20;69.54;96821.29;199531;293;190653;-52
2022/08/23 03:16:32;;;;;;;;;;;;;;;23.19;69.56;96823.83;198704;294;189997;-52
2022/08/23 03:17:33;;;;;;;;;;;;;;;23.19;69.52;96830.16;199615;293;188139;-52
2022/08/23 03:18:35;;;;;;;;;;;;;;;23.19;69.50;96829.36;199542;293;189903;-52
2022/08/23 03:19:36;;;;;;;;;;;;;;;23.19;69.52;96826.59;199546;293;188444;-54
2022/08/23 03:20:38;;;;;;;;;;;;;;;23.19;69.52;96832.13;198784;294;188160;-51
2022/08/23 03:21:39;;;;;;;;;;;;;;;23.20;69.52;96829.59;198952;294;187846;-58
2022/08/23 03:22:40;;;;;;;;;;;;;;;23.17;69.54;96824.73;199561;293;189509;-53
2022/08/23 03:23:42;;;;;;;;;;;;;;;23.20;69.56;96833.73;198694;294;189938;-51
2022/08/23 03:24:43;;;;;;;;;;;;;;;23.19;69.54;96832.92;199643;293;186724;-52
2022/08/23 03:25:45;;;;;;;;;;;;;;;23.20;69.56;96833.73;199130;294;186929;-52
2022/08/23 03:26:47;;;;;;;;;;;;;;;23.19;69.53;96837.66;199597;293;187429;-52
2022/08/23 03:27:48;;;;;;;;;;;;;;;23.20;69.53;96839.27;198662;294;188407;-53
2022/08/23 03:28:49;;;;;;;;;;;;;;;23.18;69.53;96834.08;199502;293;189322;-54
2022/08/23 03:29:51;;;;;;;;;;;;;;;23.18;69.53;96827.72;199121;294;189232;-53
2022/08/23 03:30:52;;;;;;;;;;;;;;;23.16;69.54;96830.84;199618;293;186596;-52
2022/08/23 03:31:53;;;;;;;;;;;;;;;23.17;69.52;96828.88;198757;294;190768;-52
2022/08/23 03:32:55;;;;;;;;;;;;;;;23.15;69.54;96826.47;199285;293;188524;-53
2022/08/23 03:33:56;;;;;;;;;;;;;;;23.17;69.56;96834.41;199162;294;187137;-51
2022/08/23 03:34:58;;;;;;;;;;;;;;;23.18;69.56;96830.48;199514;293;187070;-53
2022/08/23 03:36:00;;;;;;;;;;;;;;;23.15;69.54;96826.47;198693;294;190134;-54
2022/08/23 03:37:01;;;;;;;;;;;;;;;23.16;69.57;96832.80;199487;293;187110;-52
2022/08/23 03:38:02;;;;;;;;;;;;;;;23.16;69.54;96833.61;199542;293;189185;-53
2022/08/23 03:39:04;;;;;;;;;;;;;;;23.16;69.57;96836.95;198541;294;189156;-54
2022/08/23 03:40:06;;;;;;;;;;;;;;;23.17;69.54;96845.47;199593;293;187165;-51
2022/08/23 03:41:08;;;;;;;;;;;;;;;23.16;69.57;96847.42;199145;293;188750;-51
2022/08/23 03:42:09;;;;;;;;;;;;;;;23.17;69.55;96847.65;199366;293;187374;-54
2022/08/23 03:43:10;;;;;;;;;;;;;;;23.17;69.57;96851.00;198698;294;189197;-53
2022/08/23 03:44:12;;;;;;;;;;;;;;;23.16;69.58;96846.05;199343;293;189167;-52
2022/08/23 03:45:13;;;;;;;;;;;;;;;23.16;69.57;96838.33;199126;294;186975;-52
2022/08/23 03:46:22;;;;;;;;;;;;;;;23.14;69.55;96842.83;199556;293;190434;-55
2022/08/23 03:47:17;;;;;;;;;;;;;;;23.17;69.56;96846.27;198682;294;155732;-52
2022/08/23 03:48:19;;;;;;;;;;;;;;;23.16;69.59;96838.33;199148;294;189105;-51
2022/08/23 03:49:20;;;;;;;;;;;;;;;23.18;69.56;96844.31;199395;293;189149;-53
2022/08/23 03:50:22;;;;;;;;;;;;;;;23.15;69.57;96844.44;198437;294;188450;-51
2022/08/23 03:51:23;;;;;;;;;;;;;;;23.17;69.58;96849.03;198620;294;187112;-52
2022/08/23 03:52:24;;;;;;;;;;;;;;;23.16;69.59;96842.47;199576;293;189146;-54
2022/08/23 03:53:26;;;;;;;;;;;;;;;23.16;69.59;96843.28;199010;293;188351;-53
2022/08/23 03:54:28;;;;;;;;;;;;;;;23.16;69.58;96846.63;199135;293;190024;-53
2022/08/23 03:55:30;;;;;;;;;;;;;;;23.16;69.57;96852.16;198661;294;189160;-54
2022/08/23 03:56:31;;;;;;;;;;;;;;;23.17;69.59;96857.91;199594;293;188205;-52
2022/08/23 03:57:33;;;;;;;;;;;;;;;23.15;69.56;96861.60;199165;294;189764;-54
2022/08/23 03:58:34;;;;;;;;;;;;;;;23.16;69.57;96859.06;199849;292;190353;-52
2022/08/23 03:59:36;;;;;;;;;;;;;;;23.16;69.57;96859.06;199673;293;190053;-50
2022/08/23 04:00:37;;;;;;;;;;;;;;;23.15;69.56;96856.88;200129;292;188545;-53
2022/08/23 04:01:38;;;;;;;;;;;;;;;23.18;69.59;96860.90;200091;292;188990;-55
2022/08/23 04:02:40;;;;;;;;;;;;;;;23.17;69.59;96853.76;200079;292;188353;-52
2022/08/23 04:03:42;;;;;;;;;;;;;;;23.13;69.57;96852.86;200097;292;188140;-53
2022/08/23 04:04:44;;;;;;;;;;;;;;;23.16;69.61;96857.68;200009;291;188720;-53
2022/08/23 04:05:45;;;;;;;;;;;;;;;23.14;69.59;96855.84;198670;293;189233;-52
2022/08/23 04:06:47;;;;;;;;;;;;;;;23.16;69.61;96861.25;199648;293;188569;-56
2022/08/23 04:07:48;;;;;;;;;;;;;;;23.15;69.61;96858.84;200080;292;188086;-53
2022/08/23 04:08:53;;;;;;;;;;;;;;;23.15;69.62;96865.17;199286;293;189038;-52
2022/08/23 04:09:53;;;;;;;;;;;;;;;23.16;69.60;96861.83;199248;294;156288;-54
2022/08/23 04:10:54;;;;;;;;;;;;;;;23.17;69.60;96864.82;200119;292;191464;-56
2022/08/23 04:11:56;;;;;;;;;;;;;;;23.15;69.61;96860.22;200027;292;188465;-55
2022/08/23 04:12:58;;;;;;;;;;;;;;;23.15;69.62;96864.36;199506;293;188503;-52
2022/08/23 04:13:59;;;;;;;;;;;;;;;23.16;69.65;96867.36;199715;293;188243;-52
2022/08/23 04:15:00;;;;;;;;;;;;;;;23.15;69.62;96857.45;200128;291;190290;-52
2022/08/23 04:16:02;;;;;;;;;;;;;;;23.15;69.67;96856.07;199263;293;189208;-52
2022/08/23 04:17:03;;;;;;;;;;;;;;;23.15;69.64;96859.64;199724;293;188460;-53
2022/08/23 04:18:05;;;;;;;;;;;;;;;23.16;69.65;96864.59;200008;292;188028;-54
2022/08/23 04:19:06;;;;;;;;;;;;;;;23.14;69.66;96857.23;199939;292;188141;-55
2022/08/23 04:20:07;;;;;;;;;;;;;;;23.15;69.65;96866.55;199442;293;189766;-53
2022/08/23 04:21:09;;;;;;;;;;;;;;;23.15;69.67;96864.36;199674;293;188995;-54
2022/08/23 04:22:10;;;;;;;;;;;;;;;23.14;69.69;96860.00;200086;292;189655;-54
2022/08/23 04:23:12;;;;;;;;;;;;;;;23.12;69.68;96867.84;199458;293;188272;-53
2022/08/23 04:24:14;;;;;;;;;;;;;;;23.15;69.72;96869.89;199669;293;188419;-51
2022/08/23 04:25:15;;;;;;;;;;;;;;;23.15;69.69;96870.70;200082;291;188550;-54
2022/08/23 04:26:16;;;;;;;;;;;;;;;23.16;69.66;96871.50;200082;292;188855;-53
2022/08/23 04:27:18;;;;;;;;;;;;;;;23.15;69.68;96865.75;199158;293;189978;-54
2022/08/23 04:28:19;;;;;;;;;;;;;;;23.15;69.67;96865.17;199672;293;190117;-52
2022/08/23 04:29:21;;;;;;;;;;;;;;;23.14;69.68;96872.44;199971;292;190370;-55
2022/08/23 04:30:22;;;;;;;;;;;;;;;23.16;69.68;96870.13;199081;293;189161;-52
2022/08/23 04:31:25;;;;;;;;;;;;;;;23.15;69.70;96868.52;199683;293;189865;-52
2022/08/23 04:32:26;;;;;;;;;;;;;;;23.14;69.70;96866.91;200085;292;189024;-53
2022/08/23 04:33:30;;;;;;;;;;;;;;;23.16;69.69;96872.89;199382;293;188436;-55
2022/08/23 04:34:32;;;;;;;;;;;;;;;23.12;69.69;96864.49;199210;292;158023;-55
2022/08/23 04:35:33;;;;;;;;;;;;;;;23.15;69.70;96868.52;199986;292;188692;-52
2022/08/23 04:36:35;;;;;;;;;;;;;;;23.15;69.69;96869.89;199495;292;190849;-53
2022/08/23 04:37:36;;;;;;;;;;;;;;;23.14;69.68;96870.47;199366;293;188555;-52
2022/08/23 04:38:37;;;;;;;;;;;;;;;23.14;69.67;96878.77;199999;292;188181;-52
2022/08/23 04:42:17;;;;;;;;;;;;;;;23.13;69.66;96879.12;199558;293;149362;-50
2022/08/23 04:43:19;;;;;;;;;;;;;;;23.15;69.68;96874.84;199683;293;188585;-53
2022/08/23 04:44:20;;;;;;;;;;;;;;;23.15;69.67;96877.61;200098;292;190141;-50
2022/08/23 04:45:21;;;;;;;;;;;;;;;23.13;69.68;96873.02;199359;293;189498;-53
2022/08/23 04:46:23;;;;;;;;;;;;;;;23.16;69.68;96880.61;198989;294;190904;-49
2022/08/23 04:47:24;;;;;;;;;;;;;;;23.13;69.71;96878.54;199068;293;190450;-50
2022/08/23 04:48:26;;;;;;;;;;;;;;;23.15;69.70;96878.19;200076;292;187826;-52
2022/08/23 04:49:27;;;;;;;;;;;;;;;23.16;69.69;96878.41;199932;292;189026;-52
2022/08/23 04:50:28;;;;;;;;;;;;;;;23.14;69.72;96872.44;199423;293;188950;-52
2022/08/23 04:51:30;;;;;;;;;;;;;;;23.15;69.73;96876.23;199120;294;190562;-49
2022/08/23 04:52:31;;;;;;;;;;;;;;;23.14;69.71;96871.05;200059;292;186962;-52
2022/08/23 04:53:34;;;;;;;;;;;;;;;23.14;69.72;96873.23;199833;292;190197;-50
2022/08/23 04:54:35;;;;;;;;;;;;;;;23.14;69.73;96877.39;199445;293;188248;-52
2022/08/23 04:55:37;;;;;;;;;;;;;;;23.17;69.73;96879.45;199628;293;188882;-51
2022/08/23 04:56:38;;;;;;;;;;;;;;;23.18;69.74;96881.63;200099;292;188318;-51
2022/08/23 04:57:41;;;;;;;;;;;;;;;23.15;69.74;96882.34;199345;293;190720;-53
2022/08/23 04:58:43;;;;;;;;;;;;;;;23.16;69.76;96876.45;198793;293;189029;-52
2022/08/23 04:59:45;;;;;;;;;;;;;;;23.14;69.76;96876.58;200043;292;187065;-51
2022/08/23 05:00:46;;;;;;;;;;;;;;;23.14;69.75;96873.23;200096;292;189008;-50
2022/08/23 05:01:47;;;;;;;;;;;;;;;23.13;69.76;96876.36;199416;293;188621;-52
2022/08/23 05:02:49;;;;;;;;;;;;;;;23.17;69.78;96884.17;199142;294;187602;-53
2022/08/23 05:03:51;;;;;;;;;;;;;;;23.14;69.78;96885.68;198981;294;187023;-52
2022/08/23 05:04:52;;;;;;;;;;;;;;;23.15;69.80;96879.57;199450;293;190901;-53
2022/08/23 05:05:54;;;;;;;;;;;;;;;23.12;69.79;96884.42;199701;293;189526;-57
2022/08/23 05:06:55;;;;;;;;;;;;;;;23.15;69.80;96883.72;200091;292;189483;-52
2022/08/23 05:07:56;;;;;;;;;;;;;;;23.13;69.79;96886.03;199557;292;186714;-51
2022/08/23 05:08:58;;;;;;;;;;;;;;;23.15;69.82;96890.63;199480;293;189116;-50
2022/08/23 05:10:00;;;;;;;;;;;;;;;23.15;69.81;96889.25;200020;292;188315;-50
2022/08/23 05:11:01;;;;;;;;;;;;;;;23.15;69.82;96892.02;199144;294;189736;-51
2022/08/23 05:12:03;;;;;;;;;;;;;;;23.13;69.82;96891.56;200112;292;189951;-52
2022/08/23 05:13:04;;;;;;;;;;;;;;;23.14;69.82;96895.94;199922;292;190372;-53
2022/08/23 05:14:05;;;;;;;;;;;;;;;23.14;69.81;96897.31;199520;293;188824;-50
2022/08/23 05:15:08;;;;;;;;;;;;;;;23.14;69.82;96898.70;199683;292;189549;-51
2022/08/23 05:16:09;;;;;;;;;;;;;;;23.16;69.84;96904.68;200066;292;189857;-53
2022/08/23 05:17:12;;;;;;;;;;;;;;;23.14;69.83;96896.73;199621;293;159904;-53
2022/08/23 05:18:13;;;;;;;;;;;;;;;23.13;69.82;96897.89;199591;293;191162;-52
2022/08/23 05:19:15;;;;;;;;;;;;;;;23.17;69.85;96898.00;199978;292;189185;-54
2022/08/23 05:20:16;;;;;;;;;;;;;;;23.13;69.86;96897.09;199364;293;187434;-51
2022/08/23 05:21:17;;;;;;;;;;;;;;;23.14;69.85;96893.97;199675;293;189225;-53
2022/08/23 05:22:19;;;;;;;;;;;;;;;23.14;69.86;96897.31;200083;292;188461;-50
2022/08/23 05:23:20;;;;;;;;;;;;;;;23.12;69.87;96889.95;200074;292;187120;-53